createdAt,value
2019-06-10T00:00:55.305Z,16.30
2019-06-10T00:03:26.071Z,16.20
2019-06-10T00:05:57.650Z,16.20
2019-06-10T00:08:30.696Z,16.20
2019-06-10T00:11:03.197Z,16.20
2019-06-10T00:13:33.359Z,16.20
2019-06-10T00:16:05.947Z,16.10
2019-06-10T00:18:42.190Z,16.20
2019-06-10T00:21:11.140Z,16.20
2019-06-10T00:23:42.025Z,16.20
2019-06-10T00:26:12.919Z,16.20
2019-06-10T00:28:43.784Z,16.30
2019-06-10T00:31:14.383Z,16.30
2019-06-10T00:33:44.941Z,16.20
2019-06-10T00:36:15.546Z,16.10
2019-06-10T00:38:46.108Z,16.10
2019-06-10T00:41:17.048Z,16.00
2019-06-10T00:43:47.991Z,15.90
2019-06-10T00:46:21.073Z,15.90
2019-06-10T00:48:52.227Z,15.90
2019-06-10T00:51:23.154Z,15.90
2019-06-10T00:53:54.407Z,15.90
2019-06-10T00:56:25.336Z,15.80
2019-06-10T00:58:56.598Z,15.60
2019-06-10T01:01:27.197Z,15.60
2019-06-10T01:03:58.357Z,15.60
2019-06-10T01:06:31.622Z,15.60
2019-06-10T01:09:02.586Z,15.50
2019-06-10T01:11:33.218Z,15.50
2019-06-10T01:14:05.104Z,15.50
2019-06-10T01:16:36.231Z,15.50
2019-06-10T01:19:07.776Z,15.50
2019-06-10T01:21:38.349Z,15.40
2019-06-10T01:24:11.745Z,15.40
2019-06-10T01:26:41.919Z,15.30
2019-06-10T01:29:14.330Z,15.20
2019-06-10T01:31:45.543Z,15.20
2019-06-10T01:34:16.504Z,15.10
2019-06-10T01:36:47.428Z,15.10
2019-06-10T01:39:18.118Z,15.10
2019-06-10T01:41:51.054Z,15.10
2019-06-10T01:44:21.989Z,15.00
2019-06-10T01:46:53.233Z,15.00
2019-06-10T01:49:23.819Z,15.00
2019-06-10T01:51:54.394Z,15.00
2019-06-10T01:54:25.058Z,14.90
2019-06-10T01:56:55.681Z,14.90
2019-06-10T01:59:26.340Z,14.90
2019-06-10T02:02:07.013Z,14.90
2019-06-10T02:04:37.507Z,14.90
2019-06-10T02:07:09.209Z,14.90
2019-06-10T02:09:41.060Z,14.90
2019-06-10T02:12:16.324Z,14.90
2019-06-10T02:14:45.600Z,14.90
2019-06-10T02:17:17.973Z,14.90
2019-06-10T02:19:50.904Z,14.90
2019-06-10T02:22:24.208Z,15.00
2019-06-10T02:24:54.303Z,14.90
2019-06-10T02:27:25.187Z,14.90
2019-06-10T02:29:55.822Z,14.80
2019-06-10T02:32:32.893Z,14.80
2019-06-10T02:35:10.466Z,14.70
2019-06-10T02:37:37.954Z,14.70
2019-06-10T02:40:05.077Z,14.80
2019-06-10T02:42:39.389Z,14.70
2019-06-10T02:45:13.783Z,14.70
2019-06-10T02:47:44.292Z,14.60
2019-06-10T02:50:20.934Z,14.60
2019-06-10T02:52:47.937Z,14.60
2019-06-10T02:55:20.318Z,14.60
2019-06-10T02:57:53.278Z,14.50
2019-06-10T03:00:36.073Z,14.50
2019-06-10T03:02:55.449Z,14.60
2019-06-10T03:05:31.442Z,14.70
2019-06-10T03:07:58.633Z,14.70
2019-06-10T03:10:32.507Z,14.70
2019-06-10T03:13:02.395Z,14.70
2019-06-10T03:15:35.635Z,14.70
2019-06-10T03:18:06.968Z,14.70
2019-06-10T03:20:37.657Z,14.60
2019-06-10T03:23:08.622Z,14.70
2019-06-10T03:25:39.172Z,14.70
2019-06-10T03:28:11.975Z,14.70
2019-06-10T03:30:53.511Z,14.70
2019-06-10T03:33:14.635Z,14.70
2019-06-10T03:35:45.221Z,14.50
2019-06-10T03:38:16.214Z,14.50
2019-06-10T03:40:47.237Z,14.50
2019-06-10T03:43:18.749Z,14.50
2019-06-10T03:45:49.473Z,14.40
2019-06-10T03:48:21.124Z,14.30
2019-06-10T03:50:52.838Z,14.30
2019-06-10T03:53:25.450Z,14.30
2019-06-10T03:55:56.460Z,14.40
2019-06-10T03:58:28.887Z,14.50
2019-06-10T04:00:59.768Z,14.50
2019-06-10T04:03:30.348Z,14.60
2019-06-10T04:06:02.388Z,14.70
2019-06-10T04:08:33.467Z,14.80
2019-06-10T04:11:04.354Z,14.90
2019-06-10T04:13:35.023Z,15.00
2019-06-10T04:16:05.926Z,15.00
2019-06-10T04:18:36.845Z,15.00
2019-06-10T04:21:07.737Z,15.10
2019-06-10T04:23:38.293Z,15.20
2019-06-10T04:26:09.262Z,15.10
2019-06-10T04:28:39.826Z,15.20
2019-06-10T04:31:12.898Z,15.20
2019-06-10T04:33:43.444Z,15.20
2019-06-10T04:36:14.212Z,15.20
2019-06-10T04:38:44.762Z,15.20
2019-06-10T04:41:15.366Z,15.20
2019-06-10T04:43:46.235Z,15.20
2019-06-10T04:46:18.283Z,15.30
2019-06-10T04:48:49.317Z,15.30
2019-06-10T04:51:21.339Z,15.50
2019-06-10T04:53:52.822Z,15.50
2019-06-10T04:56:25.856Z,15.50
2019-06-10T04:58:55.749Z,15.40
2019-06-10T05:01:28.303Z,15.40
2019-06-10T05:03:58.966Z,15.30
2019-06-10T05:06:29.848Z,15.30
2019-06-10T05:09:00.473Z,15.30
2019-06-10T05:11:33.070Z,15.10
2019-06-10T05:14:03.886Z,15.00
2019-06-10T05:16:36.008Z,14.90
2019-06-10T05:19:06.807Z,15.00
2019-06-10T05:21:37.454Z,15.00
2019-06-10T05:24:08.148Z,14.90
2019-06-10T05:26:39.395Z,15.00
2019-06-10T05:29:12.142Z,14.90
2019-06-10T05:31:43.727Z,14.90
2019-06-10T05:34:14.463Z,14.90
2019-06-10T05:36:45.399Z,15.00
2019-06-10T05:39:16.346Z,15.00
2019-06-10T05:41:50.119Z,15.10
2019-06-10T05:44:19.918Z,15.20
2019-06-10T05:46:52.664Z,15.40
2019-06-10T05:49:24.735Z,15.50
2019-06-10T05:51:55.804Z,15.60
2019-06-10T05:54:27.580Z,15.70
2019-06-10T05:56:58.297Z,15.70
2019-06-10T05:59:29.574Z,15.80
2019-06-10T06:02:02.262Z,16.00
2019-06-10T06:04:34.724Z,16.10
2019-06-10T06:07:05.846Z,16.10
2019-06-10T06:09:37.752Z,16.00
2019-06-10T06:12:11.244Z,16.10
2019-06-10T06:14:42.588Z,16.20
2019-06-10T06:17:16.682Z,16.20
2019-06-10T06:19:46.246Z,16.30
2019-06-10T06:22:17.218Z,16.50
2019-06-10T06:24:48.153Z,16.60
2019-06-10T06:27:19.035Z,16.60
2019-06-10T06:29:52.311Z,16.90
2019-06-10T06:32:23.656Z,17.00
2019-06-10T06:34:54.411Z,17.20
2019-06-10T06:37:25.017Z,17.00
2019-06-10T06:39:56.024Z,17.10
2019-06-10T06:42:27.485Z,17.20
2019-06-10T06:44:58.087Z,17.20
2019-06-10T06:47:29.788Z,16.90
2019-06-10T06:50:02.749Z,17.20
2019-06-10T06:53:06.076Z,17.50
2019-06-10T06:55:06.785Z,17.60
2019-06-10T06:57:38.836Z,17.60
2019-06-10T07:00:35.379Z,17.80
2019-06-10T07:02:43.807Z,17.90
2019-06-10T07:05:14.501Z,17.90
2019-06-10T07:07:46.300Z,17.60
2019-06-10T07:10:17.331Z,17.20
2019-06-10T07:12:52.275Z,17.40
2019-06-10T07:15:34.422Z,17.50
2019-06-10T07:18:06.389Z,17.30
2019-06-10T07:20:38.223Z,17.40
2019-06-10T07:23:09.633Z,17.30
2019-06-10T07:25:46.535Z,17.30
2019-06-10T07:28:13.203Z,17.50
2019-06-10T07:30:51.132Z,17.40
2019-06-10T07:33:16.625Z,17.40
2019-06-10T07:35:47.607Z,17.40
2019-06-10T07:38:18.171Z,17.50
2019-06-10T07:40:49.311Z,17.70
2019-06-10T07:43:20.227Z,17.90
2019-06-10T07:45:53.406Z,17.70
2019-06-10T07:48:23.836Z,17.80
2019-06-10T07:50:54.876Z,17.70
2019-06-10T07:53:25.779Z,17.60
2019-06-10T07:55:56.751Z,17.60
2019-06-10T07:58:28.029Z,17.80
2019-06-10T08:00:58.681Z,18.00
2019-06-10T08:03:29.292Z,17.90
2019-06-10T08:06:03.034Z,17.70
2019-06-10T08:08:33.059Z,17.40
2019-06-10T08:11:03.868Z,17.40
2019-06-10T08:13:35.209Z,17.50
2019-06-10T08:16:05.886Z,17.60
2019-06-10T08:18:44.459Z,18.00
2019-06-10T08:21:09.155Z,18.20
2019-06-10T08:23:40.323Z,17.90
2019-06-10T08:26:12.794Z,18.00
2019-06-10T08:28:46.459Z,18.30
2019-06-10T08:31:16.243Z,18.40
2019-06-10T08:33:49.014Z,18.10
2019-06-10T08:36:19.515Z,18.40
2019-06-10T08:38:52.719Z,18.10
2019-06-10T08:41:24.617Z,18.30
2019-06-10T08:43:55.440Z,18.50
2019-06-10T08:46:26.695Z,18.50
2019-06-10T08:48:57.270Z,18.60
2019-06-10T08:51:27.834Z,18.40
2019-06-10T08:53:58.754Z,18.80
2019-06-10T08:56:32.579Z,18.50
2019-06-10T08:59:03.219Z,18.40
2019-06-10T09:01:35.085Z,18.60
2019-06-10T09:04:06.819Z,18.60
2019-06-10T09:06:38.699Z,18.80
2019-06-10T09:09:12.698Z,19.10
2019-06-10T09:11:44.807Z,19.60
2019-06-10T09:14:15.801Z,19.70
2019-06-10T09:16:48.893Z,20.00
2019-06-10T09:19:19.081Z,19.80
2019-06-10T09:21:53.372Z,19.60
2019-06-10T09:24:22.511Z,19.80
2019-06-10T09:26:54.983Z,19.70
2019-06-10T09:29:26.636Z,20.00
2019-06-10T09:31:57.606Z,20.30
2019-06-10T09:34:29.130Z,20.20
2019-06-10T09:36:59.775Z,20.40
2019-06-10T09:39:32.871Z,20.40
2019-06-10T09:42:06.357Z,19.90
2019-06-10T09:44:35.358Z,19.90
2019-06-10T09:47:06.983Z,19.90
2019-06-10T09:49:38.613Z,20.10
2019-06-10T09:52:09.367Z,20.30
2019-06-10T09:54:42.938Z,20.60
2019-06-10T09:57:13.146Z,20.60
2019-06-10T09:59:47.759Z,20.40
2019-06-10T10:02:16.851Z,20.40
2019-06-10T10:04:52.307Z,20.30
2019-06-10T10:07:22.527Z,20.20
2019-06-10T10:09:57.138Z,20.50
2019-06-10T10:12:26.056Z,21.00
2019-06-10T10:14:56.712Z,20.60
2019-06-10T10:17:27.741Z,20.10
2019-06-10T10:19:58.426Z,19.90
2019-06-10T10:22:28.997Z,20.20
2019-06-10T10:25:02.748Z,20.60
2019-06-10T10:27:32.716Z,21.00
2019-06-10T10:30:03.985Z,21.10
2019-06-10T10:32:34.744Z,20.90
2019-06-10T10:35:05.788Z,21.10
2019-06-10T10:37:36.773Z,21.60
2019-06-10T10:40:08.595Z,21.90
2019-06-10T10:42:45.935Z,22.10
2019-06-10T10:45:13.841Z,21.90
2019-06-10T10:47:45.034Z,21.80
2019-06-10T10:50:16.751Z,21.90
2019-06-10T10:52:48.626Z,21.80
2019-06-10T10:55:22.212Z,21.40
2019-06-10T10:57:54.647Z,21.00
2019-06-10T11:00:26.178Z,21.10
2019-06-10T11:02:57.807Z,21.40
2019-06-10T11:05:37.112Z,21.80
2019-06-10T11:08:13.128Z,22.50
2019-06-10T11:10:45.732Z,22.70
2019-06-10T11:13:15.823Z,22.90
2019-06-10T11:15:47.342Z,23.60
2019-06-10T11:18:18.647Z,23.90
2019-06-10T11:20:51.428Z,23.50
2019-06-10T11:23:22.939Z,23.10
2019-06-10T11:25:57.013Z,22.80
2019-06-10T11:28:27.017Z,22.90
2019-06-10T11:30:58.705Z,23.20
2019-06-10T11:33:29.354Z,22.70
2019-06-10T11:36:02.644Z,22.60
2019-06-10T11:38:33.207Z,22.90
2019-06-10T11:41:04.642Z,22.60
2019-06-10T11:43:35.756Z,21.90
2019-06-10T11:46:08.084Z,22.40
2019-06-10T11:48:40.121Z,22.40
2019-06-10T11:51:12.962Z,22.60
2019-06-10T11:53:44.233Z,22.70
2019-06-10T11:56:14.851Z,22.40
2019-06-10T11:58:45.827Z,21.80
2019-06-10T12:01:17.068Z,21.70
2019-06-10T12:03:48.455Z,21.80
2019-06-10T12:06:19.582Z,21.70
2019-06-10T12:08:54.117Z,21.60
2019-06-10T12:11:23.395Z,21.60
2019-06-10T12:14:01.941Z,21.80
2019-06-10T12:17:41.069Z,21.70
2019-06-10T12:19:00.855Z,22.00
2019-06-10T12:21:33.045Z,21.90
2019-06-10T12:24:04.984Z,21.90
2019-06-10T12:26:35.601Z,22.10
2019-06-10T12:29:06.838Z,22.20
2019-06-10T12:31:37.454Z,22.50
2019-06-10T12:34:08.376Z,21.90
2019-06-10T12:36:39.316Z,21.40
2019-06-10T12:39:14.857Z,21.60
2019-06-10T12:41:43.893Z,22.10
2019-06-10T12:44:14.949Z,22.30
2019-06-10T12:46:46.158Z,22.10
2019-06-10T12:49:18.586Z,21.80
2019-06-10T12:51:49.655Z,21.60
2019-06-10T12:54:22.591Z,21.60
2019-06-10T12:56:55.303Z,21.50
2019-06-10T12:59:26.313Z,21.20
2019-06-10T13:02:01.990Z,21.10
2019-06-10T13:04:31.229Z,21.20
2019-06-10T13:07:05.689Z,21.00
2019-06-10T13:09:37.304Z,21.00
2019-06-10T13:12:08.336Z,21.00
2019-06-10T13:14:42.879Z,20.90
2019-06-10T13:17:13.056Z,20.80
2019-06-10T13:19:44.065Z,20.80
2019-06-10T13:22:14.713Z,20.70
2019-06-10T13:24:45.614Z,20.70
2019-06-10T13:27:17.074Z,20.70
2019-06-10T13:29:48.043Z,20.60
2019-06-10T13:32:19.316Z,20.50
2019-06-10T13:34:52.633Z,20.40
2019-06-10T13:37:22.947Z,20.60
2019-06-10T13:39:53.986Z,20.70
2019-06-10T13:42:24.928Z,20.60
2019-06-10T13:44:56.161Z,20.30
2019-06-10T13:47:27.085Z,20.10
2019-06-10T13:49:58.973Z,20.20
2019-06-10T13:52:32.022Z,20.20
2019-06-10T13:55:03.940Z,20.20
2019-06-10T13:57:35.000Z,20.20
2019-06-10T14:00:08.581Z,20.10
2019-06-10T14:02:39.258Z,19.90
2019-06-10T14:05:17.913Z,20.00
2019-06-10T14:07:44.330Z,20.00
2019-06-10T14:10:18.381Z,20.10
2019-06-10T14:12:49.372Z,20.10
2019-06-10T14:15:22.608Z,19.80
2019-06-10T14:17:54.107Z,19.80
2019-06-10T14:20:25.460Z,19.90
2019-06-10T14:22:56.836Z,20.00
2019-06-10T14:25:27.775Z,20.00
2019-06-10T14:27:58.715Z,20.00
2019-06-10T14:30:32.198Z,20.20
2019-06-10T14:33:03.909Z,20.30
2019-06-10T14:35:34.852Z,20.20
2019-06-10T14:38:06.474Z,20.20
2019-06-10T14:40:37.625Z,20.00
2019-06-10T14:43:10.355Z,19.80
2019-06-10T14:45:42.506Z,19.80
2019-06-10T14:48:15.663Z,19.80
2019-06-10T14:50:46.303Z,19.40
2019-06-10T14:53:17.769Z,19.40
2019-06-10T14:55:48.874Z,19.30
2019-06-10T14:58:19.852Z,19.10
2019-06-10T15:00:53.786Z,18.90
2019-06-10T15:03:22.808Z,19.00
2019-06-10T15:05:53.694Z,18.90
2019-06-10T15:08:24.582Z,18.70
2019-06-10T15:10:55.576Z,18.80
2019-06-10T15:13:26.438Z,18.70
2019-06-10T15:15:57.397Z,18.70
2019-06-10T15:18:28.355Z,18.70
2019-06-10T15:20:59.109Z,18.60
2019-06-10T15:23:32.503Z,18.60
2019-06-10T15:26:03.471Z,18.60
2019-06-10T15:28:34.877Z,18.60
2019-06-10T15:31:05.789Z,18.30
2019-06-10T15:33:36.410Z,18.10
2019-06-10T15:36:09.045Z,18.10
2019-06-10T15:38:39.824Z,18.10
2019-06-10T15:41:15.071Z,18.10
2019-06-10T15:43:44.172Z,18.00
2019-06-10T15:46:16.337Z,17.90
2019-06-10T15:48:47.171Z,17.70
2019-06-10T15:51:20.998Z,17.70
2019-06-10T15:53:50.012Z,17.70
2019-06-10T15:56:31.369Z,17.70
2019-06-10T15:58:53.881Z,17.60
2019-06-10T16:01:27.096Z,17.70
2019-06-10T16:03:57.870Z,17.70
2019-06-10T16:06:28.863Z,17.70
2019-06-10T16:08:59.777Z,17.60
2019-06-10T16:11:32.993Z,17.50
2019-06-10T16:14:03.629Z,17.60
2019-06-10T16:16:34.880Z,17.60
2019-06-10T16:19:05.915Z,17.70
2019-06-10T16:21:36.852Z,17.70
2019-06-10T16:24:07.757Z,17.70
2019-06-10T16:26:38.764Z,17.70
2019-06-10T16:29:09.345Z,17.70
2019-06-10T16:31:42.606Z,17.80
2019-06-10T16:34:12.999Z,17.70
2019-06-10T16:36:44.117Z,17.60
2019-06-10T16:39:15.418Z,17.60
2019-06-10T16:41:46.347Z,17.50
2019-06-10T16:44:17.806Z,17.60
2019-06-10T16:46:48.432Z,17.60
2019-06-10T16:49:19.480Z,17.60
2019-06-10T16:51:52.163Z,17.70
2019-06-10T16:54:25.361Z,17.60
2019-06-10T16:56:55.634Z,17.50
2019-06-10T16:59:27.591Z,17.60
2019-06-10T17:01:59.041Z,17.60
2019-06-10T17:04:33.132Z,17.60
2019-06-10T17:07:03.668Z,17.50
2019-06-10T17:09:34.460Z,17.60
2019-06-10T17:12:05.599Z,17.40
2019-06-10T17:14:36.860Z,17.40
2019-06-10T17:17:07.725Z,17.40
2019-06-10T17:19:38.333Z,17.30
2019-06-10T17:22:08.910Z,17.10
2019-06-10T17:24:42.075Z,17.10
2019-06-10T17:27:13.098Z,17.00
2019-06-10T17:29:44.347Z,17.10
2019-06-10T17:32:15.526Z,17.00
2019-06-10T17:34:46.473Z,16.90
2019-06-10T17:37:17.090Z,17.00
2019-06-10T17:39:47.643Z,17.00
2019-06-10T17:42:18.665Z,17.10
2019-06-10T17:44:49.909Z,17.10
2019-06-10T17:47:23.518Z,17.20
2019-06-10T17:49:53.056Z,17.20
2019-06-10T17:52:24.139Z,17.10
2019-06-10T17:54:55.409Z,17.00
2019-06-10T17:57:27.151Z,16.90
2019-06-10T17:59:59.467Z,17.00
2019-06-10T18:02:31.802Z,17.00
2019-06-10T18:05:03.243Z,16.90
2019-06-10T18:07:35.826Z,17.00
2019-06-10T18:10:07.014Z,17.00
2019-06-10T18:12:38.318Z,16.90
2019-06-10T18:15:12.584Z,16.90
2019-06-10T18:17:43.392Z,16.90
2019-06-10T18:20:14.624Z,16.90
2019-06-10T18:22:45.504Z,16.90
2019-06-10T18:25:16.910Z,17.00
2019-06-10T18:27:48.463Z,16.90
2019-06-10T18:30:22.214Z,16.80
2019-06-10T18:32:53.397Z,16.80
2019-06-10T18:35:25.768Z,16.70
2019-06-10T18:37:56.569Z,16.70
2019-06-10T18:40:27.472Z,16.70
2019-06-10T18:42:58.051Z,16.70
2019-06-10T18:45:29.810Z,16.70
2019-06-10T18:48:00.461Z,16.80
2019-06-10T18:50:33.394Z,16.80
2019-06-10T18:53:04.313Z,16.70
2019-06-10T18:55:38.701Z,16.60
2019-06-10T18:58:07.962Z,16.60
2019-06-10T19:00:54.606Z,16.50
2019-06-10T19:03:16.418Z,16.50
2019-06-10T19:05:43.637Z,16.50
2019-06-10T19:08:14.574Z,16.50
2019-06-10T19:10:45.248Z,16.50
2019-06-10T19:13:16.157Z,16.50
2019-06-10T19:15:46.822Z,16.50
2019-06-10T19:18:17.806Z,16.40
2019-06-10T19:20:49.051Z,16.40
2019-06-10T19:23:19.827Z,16.40
2019-06-10T19:25:52.419Z,16.40
2019-06-10T19:28:23.413Z,16.40
2019-06-10T19:30:54.409Z,16.40
2019-06-10T19:33:25.060Z,16.30
2019-06-10T19:35:56.075Z,16.30
2019-06-10T19:38:26.632Z,16.30
2019-06-10T19:40:57.565Z,16.30
2019-06-10T19:43:28.421Z,16.30
2019-06-10T19:45:59.936Z,16.20
2019-06-10T19:48:35.240Z,16.20
2019-06-10T19:51:03.668Z,16.20
2019-06-10T19:53:35.678Z,16.20
2019-06-10T19:56:06.977Z,16.10
2019-06-10T19:58:38.231Z,16.10
2019-06-10T20:01:09.892Z,16.10
2019-06-10T20:03:44.814Z,16.10
2019-06-10T20:06:13.792Z,16.10
2019-06-10T20:08:46.119Z,16.10
2019-06-10T20:11:17.331Z,16.10
2019-06-10T20:13:48.268Z,16.00
2019-06-10T20:16:18.855Z,16.00
2019-06-10T20:18:49.877Z,16.00
2019-06-10T20:21:22.740Z,15.90
2019-06-10T20:23:54.254Z,15.90
2019-06-10T20:26:27.717Z,15.90
2019-06-10T20:28:57.476Z,15.90
2019-06-10T20:31:28.059Z,15.90
2019-06-10T20:33:58.979Z,15.90
2019-06-10T20:36:30.358Z,15.90
2019-06-10T20:39:00.967Z,15.80
2019-06-10T20:41:31.863Z,15.70
2019-06-10T20:44:02.915Z,15.70
2019-06-10T20:46:33.767Z,15.70
2019-06-10T20:49:04.518Z,15.70
2019-06-10T20:51:48.816Z,15.70
2019-06-10T20:54:08.298Z,15.70
2019-06-10T20:56:41.115Z,15.80
2019-06-10T20:59:13.114Z,15.80
2019-06-10T21:01:47.298Z,15.80
2019-06-10T21:04:16.447Z,15.80
2019-06-10T21:06:50.149Z,15.80
2019-06-10T21:09:22.486Z,15.80
2019-06-10T21:11:54.412Z,15.80
2019-06-10T21:14:25.434Z,15.80
2019-06-10T21:16:57.347Z,15.80
2019-06-10T21:19:28.539Z,15.80
2019-06-10T21:21:59.202Z,15.80
2019-06-10T21:24:32.208Z,15.80
2019-06-10T21:27:02.472Z,15.80
2019-06-10T21:29:33.019Z,15.80
2019-06-10T21:32:04.643Z,15.70
2019-06-10T21:34:35.527Z,15.70
2019-06-10T21:37:06.854Z,15.70
2019-06-10T21:39:38.182Z,15.70
2019-06-10T21:42:09.091Z,15.60
2019-06-10T21:44:39.727Z,15.60
2019-06-10T21:47:12.927Z,15.60
2019-06-10T21:49:44.307Z,15.60
2019-06-10T21:52:16.371Z,15.60
2019-06-10T21:54:46.948Z,15.60
2019-06-10T21:57:17.923Z,15.60
2019-06-10T21:59:48.990Z,15.50
2019-06-10T22:02:20.225Z,15.50
2019-06-10T22:04:53.752Z,15.50
2019-06-10T22:07:23.962Z,15.50
2019-06-10T22:09:56.047Z,15.40
2019-06-10T22:12:27.260Z,15.40
2019-06-10T22:14:58.297Z,15.40
2019-06-10T22:17:28.956Z,15.40
2019-06-10T22:20:00.178Z,15.40
2019-06-10T22:22:32.329Z,15.40
2019-06-10T22:25:03.145Z,15.40
2019-06-10T22:27:34.437Z,15.40
2019-06-10T22:30:11.176Z,15.40
2019-06-10T22:32:38.434Z,15.40
2019-06-10T22:35:12.068Z,15.40
2019-06-10T22:37:42.320Z,15.30
2019-06-10T22:40:13.155Z,15.30
2019-06-10T22:42:43.777Z,15.30
2019-06-10T22:45:14.414Z,15.30
2019-06-10T22:47:45.411Z,15.30
2019-06-10T22:50:16.800Z,15.30
2019-06-10T22:52:47.433Z,15.30
2019-06-10T22:55:18.317Z,15.40
2019-06-10T22:57:48.958Z,15.40
2019-06-10T23:00:22.107Z,15.50
2019-06-10T23:02:54.596Z,15.50
2019-06-10T23:05:24.713Z,15.50
2019-06-10T23:07:57.174Z,15.60
2019-06-10T23:10:27.635Z,15.50
2019-06-10T23:12:59.804Z,15.40
2019-06-10T23:15:32.294Z,15.50
2019-06-10T23:18:03.470Z,15.50
2019-06-10T23:20:34.082Z,15.40
2019-06-10T23:23:04.660Z,15.30
2019-06-10T23:25:35.202Z,15.20
2019-06-10T23:28:05.821Z,15.20
2019-06-10T23:30:37.105Z,15.20
2019-06-10T23:33:08.053Z,15.20
2019-06-10T23:35:38.620Z,15.20
2019-06-10T23:38:09.539Z,15.10
2019-06-10T23:40:42.931Z,15.10
2019-06-10T23:43:13.452Z,15.10
2019-06-10T23:45:44.117Z,15.10
2019-06-10T23:48:15.041Z,15.20
2019-06-10T23:50:46.049Z,15.10
2019-06-10T23:53:16.958Z,15.10
2019-06-10T23:55:48.237Z,15.00
2019-06-10T23:58:21.914Z,15.00
